Time;durP1;ratioP1;P1;durP2;ratioP2;P2;SDS_P1;SDS_P2;PMS_P1;PMS_P2;Temp;Humidity;BMP_temperature;BMP_pressure;BME280_temperature;BME280_humidity;BME280_pressure;Samples;Min_cycle;Max_cycle;Signal;HPM_P1;HPM_P2
2022/10/19 00:01:41;;;;;;;8.25;1.75;;;10.40;99.90;;;;;;5056104;28;20044;-78
2022/10/19 00:04:07;;;;;;;8.48;1.70;;;10.40;99.90;;;;;;5053665;28;20044;-78
2022/10/19 00:06:35;;;;;;;7.00;1.60;;;10.40;99.90;;;;;;5073150;28;20040;-78
2022/10/19 00:09:10;;;;;;;7.93;1.75;;;10.40;99.90;;;;;;5056160;28;20044;-78
2022/10/19 00:11:40;;;;;;;8.35;1.70;;;10.40;99.90;;;;;;5089580;28;20040;-78
2022/10/19 00:14:06;;;;;;;7.55;1.50;;;10.30;99.90;;;;;;5055996;28;20491;-78
2022/10/19 00:16:35;;;;;;;10.95;1.70;;;10.30;99.90;;;;;;5072126;28;20078;-78
2022/10/19 00:19:03;;;;;;;8.73;1.63;;;10.30;99.90;;;;;;5072974;28;20086;-78
2022/10/19 00:21:29;;;;;;;8.77;1.98;;;10.30;99.90;;;;;;5055751;28;20052;-78
2022/10/19 00:23:54;;;;;;;5.82;1.50;;;10.30;99.90;;;;;;5064649;28;20494;-77
2022/10/19 00:26:20;;;;;;;7.40;1.63;;;10.30;99.90;;;;;;5072579;28;20036;-77
2022/10/19 00:28:46;;;;;;;6.32;1.60;;;10.30;99.90;;;;;;5072256;28;20048;-78
2022/10/19 00:31:15;;;;;;;8.35;1.90;;;10.30;99.90;;;;;;5073206;28;20036;-78
2022/10/19 00:33:45;;;;;;;6.63;1.58;;;10.20;99.90;;;;;;5072413;28;20048;-78
2022/10/19 00:36:32;;;;;;;8.93;1.77;;;10.20;99.90;;;;;;5072102;28;20052;-78
2022/10/19 00:38:58;;;;;;;8.68;1.75;;;10.10;99.90;;;;;;5071910;28;20041;-78
2022/10/19 00:41:27;;;;;;;7.68;2.08;;;10.20;99.90;;;;;;5071980;28;20044;-78
2022/10/19 00:44:03;;;;;;;9.02;2.08;;;10.20;99.90;;;;;;5071517;28;20074;-77
2022/10/19 00:46:34;;;;;;;9.45;1.95;;;10.20;99.90;;;;;;5054959;28;20028;-77
2022/10/19 00:49:14;;;;;;;7.10;1.90;;;10.10;99.90;;;;;;5070748;28;20376;-77
2022/10/19 00:51:44;;;;;;;8.93;1.90;;;10.20;99.90;;;;;;5070108;28;20055;-78
2022/10/19 00:54:11;;;;;;;7.13;1.70;;;10.20;99.90;;;;;;5071951;28;20040;-78
2022/10/19 00:56:40;;;;;;;8.20;1.80;;;10.20;99.90;;;;;;5071439;28;20170;-78
2022/10/19 00:59:08;;;;;;;6.20;1.83;;;10.20;99.90;;;;;;5072288;28;20040;-78
2022/10/19 01:01:34;;;;;;;7.85;1.80;;;10.20;99.90;;;;;;5055020;28;20047;-78
2022/10/19 01:04:01;;;;;;;6.82;1.77;;;10.20;99.90;;;;;;5072242;28;20036;-77
2022/10/19 01:06:27;;;;;;;7.10;1.98;;;10.20;99.90;;;;;;5072118;28;20045;-77
2022/10/19 01:08:53;;;;;;;8.07;1.85;;;10.20;99.90;;;;;;5071602;28;20106;-77
2022/10/19 01:11:33;;;;;;;10.30;1.92;;;10.20;99.90;;;;;;5051464;28;20040;-77
2022/10/19 01:14:20;;;;;;;6.82;1.63;;;10.10;99.90;;;;;;5054674;28;20052;-77
2022/10/19 01:16:58;;;;;;;8.70;1.80;;;10.20;99.90;;;;;;5065369;28;20048;-77
2022/10/19 01:19:54;;;;;;;7.10;1.90;;;10.10;99.90;;;;;;5067604;28;20131;-78
2022/10/19 01:22:38;;;;;;;8.98;1.60;;;10.10;99.90;;;;;;5072018;28;20051;-77
2022/10/19 01:25:24;;;;;;;10.13;1.95;;;10.10;99.90;;;;;;5056612;28;20167;-78
2022/10/19 01:28:15;;;;;;;8.30;1.80;;;10.20;99.90;;;;;;5066682;28;20127;-78
2022/10/19 01:31:12;;;;;;;6.35;1.83;;;10.10;99.90;;;;;;5060778;28;20044;-78
2022/10/19 01:33:52;;;;;;;8.40;1.90;;;10.20;99.90;;;;;;5095424;28;20071;-78
2022/10/19 01:36:31;;;;;;;10.57;2.22;;;10.20;99.90;;;;;;5055074;28;20036;-77
2022/10/19 01:39:21;;;;;;;6.80;1.70;;;10.20;99.90;;;;;;5071401;28;20546;-77
2022/10/19 01:41:50;;;;;;;7.72;2.00;;;10.30;99.90;;;;;;5041558;28;20044;-77
2022/10/19 01:44:28;;;;;;;7.63;2.00;;;10.30;99.90;;;;;;5071889;28;20507;-77
2022/10/19 01:46:59;;;;;;;8.00;2.10;;;10.30;99.90;;;;;;5070779;28;20063;-77
2022/10/19 01:49:34;;;;;;;8.68;2.10;;;10.30;99.90;;;;;;5072012;28;20047;-77
2022/10/19 01:52:04;;;;;;;6.25;1.80;;;10.30;99.90;;;;;;5057275;28;20139;-78
2022/10/19 01:54:37;;;;;;;8.32;1.80;;;10.30;99.90;;;;;;5071600;28;20055;-77
2022/10/19 01:57:06;;;;;;;8.07;1.83;;;10.40;99.90;;;;;;5072040;28;20051;-77
2022/10/19 01:59:33;;;;;;;7.82;1.65;;;10.40;99.90;;;;;;5075723;28;20044;-78
2022/10/19 02:02:00;;;;;;;7.90;1.90;;;10.40;99.90;;;;;;5058179;28;20368;-77
2022/10/19 02:04:27;;;;;;;6.95;1.75;;;10.40;99.90;;;;;;5069998;28;20048;-77
2022/10/19 02:06:54;;;;;;;6.93;1.83;;;10.40;99.90;;;;;;5068820;28;20079;-78
2022/10/19 02:09:20;;;;;;;7.53;1.60;;;10.40;99.90;;;;;;5075266;28;20123;-78
2022/10/19 02:11:50;;;;;;;6.07;1.50;;;10.40;99.90;;;;;;5074888;28;20494;-78
2022/10/19 02:14:19;;;;;;;7.28;1.60;;;10.50;99.90;;;;;;5074333;28;20041;-78
2022/10/19 02:17:08;;;;;;;6.20;1.73;;;10.50;99.90;;;;;;5057967;28;20040;-78
2022/10/19 02:19:34;;;;;;;8.00;1.80;;;10.50;99.90;;;;;;5074491;28;20052;-78
2022/10/19 02:22:00;;;;;;;11.43;1.88;;;10.50;99.90;;;;;;5075004;28;20135;-78
2022/10/19 02:24:26;;;;;;;8.65;2.00;;;10.60;99.90;;;;;;5074648;28;20052;-78
2022/10/19 02:26:53;;;;;;;10.02;1.90;;;10.50;99.90;;;;;;5074665;28;20384;-78
2022/10/19 02:29:19;;;;;;;7.68;1.70;;;10.50;99.90;;;;;;5058696;28;20051;-78
2022/10/19 02:31:44;;;;;;;7.60;1.98;;;10.50;99.90;;;;;;5062808;28;20044;-78
2022/10/19 02:34:11;;;;;;;9.02;2.00;;;10.50;99.90;;;;;;5058021;28;20055;-78
2022/10/19 02:36:37;;;;;;;8.30;1.80;;;10.50;99.90;;;;;;5074755;28;20120;-78
2022/10/19 02:39:03;;;;;;;10.32;1.80;;;10.50;99.90;;;;;;5058106;28;20127;-78
2022/10/19 02:41:40;;;;;;;7.88;1.65;;;10.50;99.90;;;;;;5074178;28;20115;-77
2022/10/19 02:44:47;;;;;;;6.38;1.67;;;10.50;99.90;;;;;;5075059;28;20097;-77
2022/10/19 02:47:17;;;;;;;7.35;1.88;;;10.50;99.90;;;;;;5106338;28;20135;-78
2022/10/19 02:49:45;;;;;;;8.20;1.80;;;10.60;99.90;;;;;;5091303;28;20055;-78
2022/10/19 02:52:12;;;;;;;7.57;1.83;;;10.50;99.90;;;;;;5074258;28;20040;-77
2022/10/19 02:54:41;;;;;;;11.63;2.10;;;10.50;99.90;;;;;;5078731;28;20048;-78
2022/10/19 02:57:18;;;;;;;8.48;1.65;;;10.40;99.90;;;;;;5107689;28;20047;-78
2022/10/19 02:59:45;;;;;;;6.38;1.40;;;10.40;99.90;;;;;;5074428;28;20052;-78
2022/10/19 03:02:11;;;;;;;6.50;1.65;;;10.40;99.90;;;;;;5073726;28;20076;-77
2022/10/19 03:04:37;;;;;;;10.50;2.00;;;10.40;99.90;;;;;;5057822;28;20135;-77
2022/10/19 03:07:03;;;;;;;6.88;1.83;;;10.40;99.90;;;;;;5073375;28;20040;-77
2022/10/19 03:09:28;;;;;;;9.30;1.80;;;10.40;99.90;;;;;;5057662;28;20044;-77
2022/10/19 03:11:55;;;;;;;6.35;1.50;;;10.30;99.90;;;;;;5073094;28;20067;-77
2022/10/19 03:14:20;;;;;;;6.38;1.55;;;10.30;99.90;;;;;;5073969;28;20049;-77
2022/10/19 03:16:46;;;;;;;8.05;1.70;;;10.30;99.90;;;;;;5073418;28;20166;-77
2022/10/19 03:19:12;;;;;;;6.53;1.55;;;10.30;99.90;;;;;;5073375;28;20040;-78
2022/10/19 03:21:38;;;;;;;6.07;1.48;;;10.30;99.90;;;;;;5073820;28;20476;-78
2022/10/19 03:24:03;;;;;;;6.80;1.60;;;10.30;99.90;;;;;;5072514;28;20080;-78
2022/10/19 03:26:29;;;;;;;6.18;1.33;;;10.20;99.90;;;;;;5087586;28;20051;-78
2022/10/19 03:28:55;;;;;;;5.53;1.60;;;10.20;99.90;;;;;;5066061;28;20041;-78
2022/10/19 03:31:21;;;;;;;8.75;1.85;;;10.20;99.90;;;;;;5056767;28;20128;-78
2022/10/19 03:33:46;;;;;;;7.40;1.70;;;10.20;99.90;;;;;;5074260;28;20055;-78
2022/10/19 03:36:15;;;;;;;7.68;1.63;;;10.20;99.90;;;;;;5073358;28;20045;-78
2022/10/19 03:38:41;;;;;;;8.73;1.80;;;10.10;99.90;;;;;;5073910;28;20372;-78
2022/10/19 03:41:07;;;;;;;5.45;1.35;;;10.10;99.90;;;;;;5073556;28;20052;-78
2022/10/19 03:43:33;;;;;;;8.43;1.45;;;10.00;99.90;;;;;;5072467;28;20098;-78
2022/10/19 03:45:59;;;;;;;5.00;1.55;;;10.00;99.90;;;;;;5072889;28;20072;-78
2022/10/19 03:48:25;;;;;;;10.63;1.88;;;10.00;99.90;;;;;;5056552;28;20127;-78
2022/10/19 03:51:02;;;;;;;6.97;1.80;;;10.00;99.90;;;;;;5073597;28;20043;-78
2022/10/19 03:53:30;;;;;;;8.73;1.60;;;9.90;99.90;;;;;;5072565;28;20075;-78
2022/10/19 03:56:00;;;;;;;11.38;1.98;;;9.90;99.90;;;;;;5074356;28;20380;-78
2022/10/19 03:58:26;;;;;;;6.95;1.70;;;9.90;99.90;;;;;;5072775;28;20032;-78
2022/10/19 04:00:52;;;;;;;7.80;1.50;;;9.90;99.90;;;;;;5072356;28;20109;-78
2022/10/19 04:03:17;;;;;;;7.85;1.48;;;9.90;99.90;;;;;;5073037;28;20469;-78
2022/10/19 04:05:43;;;;;;;7.00;1.65;;;9.80;99.90;;;;;;5072983;28;20388;-78
2022/10/19 04:08:09;;;;;;;6.07;1.40;;;9.80;99.90;;;;;;5072903;28;20155;-78
2022/10/19 04:10:34;;;;;;;9.50;1.90;;;9.80;99.90;;;;;;5071997;28;20041;-78
2022/10/19 04:13:00;;;;;;;5.90;1.50;;;9.70;99.90;;;;;;5072697;28;20048;-78
2022/10/19 04:15:26;;;;;;;9.23;1.80;;;9.80;99.90;;;;;;5060050;28;20043;-78
2022/10/19 04:17:51;;;;;;;6.22;1.90;;;9.80;99.90;;;;;;5072242;28;20048;-78
2022/10/19 04:20:17;;;;;;;7.45;1.75;;;9.80;99.90;;;;;;5055260;28;20067;-78
2022/10/19 04:22:43;;;;;;;7.97;1.75;;;9.70;99.90;;;;;;5055827;28;20041;-78
2022/10/19 04:25:11;;;;;;;10.35;2.25;;;9.70;99.90;;;;;;5045354;28;20063;-78
2022/10/19 04:27:39;;;;;;;7.93;1.92;;;9.70;99.90;;;;;;5072123;28;20559;-78
2022/10/19 04:30:06;;;;;;;10.00;2.00;;;9.70;99.90;;;;;;5072532;28;20039;-78
2022/10/19 04:32:34;;;;;;;7.82;1.60;;;9.60;99.90;;;;;;5039434;28;20044;-78
2022/10/19 04:35:00;;;;;;;7.28;1.63;;;9.80;99.90;;;;;;5055796;28;20364;-78
2022/10/19 04:37:25;;;;;;;9.40;1.80;;;9.60;99.90;;;;;;5071680;28;20048;-78
2022/10/19 04:39:51;;;;;;;6.28;1.60;;;9.60;99.90;;;;;;5072759;28;20071;-78
2022/10/19 04:42:17;;;;;;;9.57;1.90;;;9.60;99.90;;;;;;5073150;28;20040;-78
2022/10/19 04:44:43;;;;;;;8.15;1.80;;;9.70;99.90;;;;;;5072036;28;20044;-78
2022/10/19 04:47:08;;;;;;;6.45;1.92;;;9.70;99.90;;;;;;5072007;28;20132;-78
2022/10/19 04:49:34;;;;;;;11.45;1.95;;;9.70;99.90;;;;;;5073293;28;20323;-78
2022/10/19 04:51:59;;;;;;;12.00;2.10;;;9.80;99.90;;;;;;5072224;28;20040;-78
2022/10/19 04:54:25;;;;;;;11.13;1.92;;;9.70;99.90;;;;;;5061822;28;20076;-78
2022/10/19 04:56:52;;;;;;;10.18;1.83;;;9.80;99.90;;;;;;5070217;28;20051;-78
2022/10/19 04:59:18;;;;;;;10.07;2.13;;;9.70;99.90;;;;;;5072472;28;20044;-78
2022/10/19 05:01:44;;;;;;;9.13;1.70;;;9.70;99.90;;;;;;5071284;28;20490;-78
2022/10/19 05:04:10;;;;;;;7.65;1.80;;;9.70;99.90;;;;;;5055200;28;20036;-78
2022/10/19 05:06:36;;;;;;;7.80;1.50;;;9.70;99.90;;;;;;5071443;28;20057;-79
2022/10/19 05:09:02;;;;;;;12.77;2.20;;;9.70;99.90;;;;;;5072404;28;20036;-78
2022/10/19 05:11:28;;;;;;;10.40;2.00;;;9.70;99.90;;;;;;5055301;28;20066;-78
2022/10/19 05:13:55;;;;;;;10.50;2.20;;;9.80;99.90;;;;;;5070686;28;20044;-78
2022/10/19 05:16:22;;;;;;;11.02;2.35;;;9.70;99.90;;;;;;5071836;28;20124;-78
2022/10/19 05:18:57;;;;;;;10.55;2.20;;;9.90;99.90;;;;;;5072066;28;20036;-78
2022/10/19 05:21:25;;;;;;;8.15;1.98;;;9.70;99.90;;;;;;5071347;28;20055;-78
2022/10/19 05:23:52;;;;;;;12.00;2.30;;;9.70;99.90;;;;;;5067969;28;20180;-78
2022/10/19 05:26:21;;;;;;;12.38;2.10;;;9.70;99.90;;;;;;5059150;28;20070;-78
2022/10/19 05:28:55;;;;;;;9.07;2.15;;;9.70;99.90;;;;;;5058132;28;20044;-78
2022/10/19 05:31:23;;;;;;;12.70;2.15;;;9.70;99.90;;;;;;5058383;28;20040;-78
2022/10/19 05:33:49;;;;;;;8.77;2.30;;;9.70;99.90;;;;;;5075563;28;20083;-78
2022/10/19 05:36:33;;;;;;;13.52;2.40;;;9.80;99.90;;;;;;5068621;28;20060;-78
2022/10/19 05:39:02;;;;;;;10.55;2.70;;;9.70;99.90;;;;;;5106946;28;20089;-78
2022/10/19 05:41:28;;;;;;;11.10;2.17;;;9.70;99.90;;;;;;5072163;28;20044;-78
2022/10/19 05:43:56;;;;;;;12.82;2.50;;;9.70;99.90;;;;;;5072560;28;20094;-78
2022/10/19 05:46:23;;;;;;;12.38;3.08;;;9.70;99.90;;;;;;5105573;28;20053;-78
2022/10/19 05:48:49;;;;;;;15.30;2.90;;;9.70;99.90;;;;;;5067308;28;20048;-78
2022/10/19 05:51:18;;;;;;;12.70;2.90;;;9.70;99.90;;;;;;5075313;28;20059;-78
2022/10/19 05:53:44;;;;;;;11.25;2.97;;;9.70;99.90;;;;;;5075163;28;20037;-78
2022/10/19 05:56:20;;;;;;;16.80;3.30;;;9.60;99.90;;;;;;5075174;28;20041;-78
2022/10/19 05:58:46;;;;;;;15.63;3.17;;;9.60;99.90;;;;;;5065003;28;20057;-78
2022/10/19 06:01:13;;;;;;;13.50;2.95;;;9.60;99.90;;;;;;5079769;28;20047;-78
2022/10/19 06:03:39;;;;;;;11.90;3.00;;;9.60;99.90;;;;;;5058289;28;20040;-78
2022/10/19 06:06:07;;;;;;;12.38;2.80;;;9.60;99.90;;;;;;5070746;28;20472;-78
2022/10/19 06:08:33;;;;;;;11.73;2.90;;;9.60;99.90;;;;;;5058684;28;20101;-78
2022/10/19 06:11:17;;;;;;;12.30;3.20;;;9.50;99.90;;;;;;5063728;28;20049;-78
2022/10/19 06:13:45;;;;;;;12.43;3.00;;;9.50;99.90;;;;;;5073316;28;20076;-78
2022/10/19 06:16:12;;;;;;;8.68;2.63;;;9.50;99.90;;;;;;5089159;28;20387;-78
2022/10/19 06:18:39;;;;;;;10.60;3.00;;;9.50;99.90;;;;;;5057522;28;20101;-78
2022/10/19 06:21:08;;;;;;;11.25;2.70;;;9.50;99.90;;;;;;5052618;28;20041;-78
2022/10/19 06:23:34;;;;;;;10.80;2.78;;;9.60;99.90;;;;;;5074156;28;20052;-79
2022/10/19 06:26:09;;;;;;;11.40;2.88;;;9.50;99.90;;;;;;5077056;28;20124;-78
2022/10/19 06:28:37;;;;;;;13.98;3.03;;;9.50;99.90;;;;;;5075938;28;20040;-78
2022/10/19 06:31:03;;;;;;;14.55;3.10;;;9.60;99.90;;;;;;5051138;28;20059;-78
2022/10/19 06:33:31;;;;;;;11.77;2.85;;;9.50;99.90;;;;;;5072033;28;20119;-78
2022/10/19 06:36:15;;;;;;;8.93;2.47;;;9.50;99.90;;;;;;5069803;28;20039;-77
2022/10/19 06:38:41;;;;;;;12.50;2.80;;;9.50;99.90;;;;;;5059408;28;20399;-78
2022/10/19 06:41:08;;;;;;;11.35;2.85;;;9.50;99.90;;;;;;5068634;28;20500;-78
2022/10/19 06:43:33;;;;;;;10.07;2.47;;;9.60;99.90;;;;;;5054371;28;20068;-78
2022/10/19 06:46:04;;;;;;;11.00;2.80;;;9.50;99.90;;;;;;5054593;28;20060;-78
2022/10/19 06:48:30;;;;;;;10.48;2.70;;;9.50;99.90;;;;;;5069928;28;20055;-78
2022/10/19 06:50:57;;;;;;;11.07;2.63;;;9.50;99.90;;;;;;5069957;28;20036;-78
2022/10/19 06:53:23;;;;;;;13.23;2.78;;;9.60;99.90;;;;;;5071791;28;20203;-78
2022/10/19 06:55:48;;;;;;;10.93;2.72;;;9.60;99.90;;;;;;5050131;28;20550;-78
2022/10/19 06:58:14;;;;;;;12.57;2.75;;;9.60;99.90;;;;;;5051442;28;20067;-78
2022/10/19 07:00:40;;;;;;;10.43;2.63;;;9.70;99.90;;;;;;5068993;28;20047;-78
2022/10/19 07:03:06;;;;;;;14.93;2.60;;;9.70;99.90;;;;;;5072552;28;20048;-78
2022/10/19 07:05:31;;;;;;;11.02;2.58;;;9.70;99.90;;;;;;4967897;28;20550;-78
2022/10/19 07:07:57;;;;;;;12.15;2.55;;;9.80;99.90;;;;;;5010943;28;20033;-78
2022/10/19 07:10:23;;;;;;;11.82;2.55;;;9.90;99.90;;;;;;5002878;28;20473;-78
2022/10/19 07:12:48;;;;;;;12.45;2.28;;;9.90;99.90;;;;;;5007774;28;20561;-78
2022/10/19 07:15:14;;;;;;;10.90;2.58;;;10.00;99.90;;;;;;4991579;28;20064;-78
2022/10/19 07:17:40;;;;;;;10.77;2.30;;;10.00;99.90;;;;;;5010515;28;20448;-79
2022/10/19 07:20:06;;;;;;;10.23;1.92;;;10.10;99.90;;;;;;4992444;28;20676;-78
2022/10/19 07:22:32;;;;;;;10.70;2.10;;;10.10;99.90;;;;;;5007660;28;20454;-79
2022/10/19 07:24:58;;;;;;;10.82;2.10;;;10.20;99.90;;;;;;5008183;28;20049;-78
2022/10/19 07:27:24;;;;;;;10.80;1.90;;;10.20;99.90;;;;;;5009056;28;20129;-79
2022/10/19 07:29:50;;;;;;;11.32;2.20;;;10.20;99.90;;;;;;5008588;28;20053;-78
2022/10/19 07:32:15;;;;;;;12.02;2.00;;;10.30;99.90;;;;;;5008753;28;20556;-78
2022/10/19 07:34:41;;;;;;;9.50;2.17;;;10.40;99.90;;;;;;5009134;28;20046;-78
2022/10/19 07:37:07;;;;;;;12.57;2.45;;;10.40;99.90;;;;;;5009426;28;20042;-79
2022/10/19 07:39:32;;;;;;;13.38;2.13;;;10.50;99.90;;;;;;5009315;28;20370;-79
2022/10/19 07:41:58;;;;;;;12.57;1.98;;;10.50;99.90;;;;;;5008560;28;20042;-78
2022/10/19 07:44:24;;;;;;;13.05;2.17;;;10.60;99.90;;;;;;5009705;28;20041;-79
2022/10/19 07:46:49;;;;;;;14.50;2.30;;;10.60;99.90;;;;;;5011324;28;20053;-79
2022/10/19 07:49:17;;;;;;;12.52;2.22;;;10.70;99.90;;;;;;4994617;28;20041;-78
2022/10/19 07:51:43;;;;;;;12.38;2.22;;;10.80;99.90;;;;;;5010413;28;20042;-78
2022/10/19 07:54:09;;;;;;;15.90;2.53;;;10.80;99.90;;;;;;5010331;28;20176;-78
2022/10/19 07:56:35;;;;;;;12.23;2.00;;;10.90;99.90;;;;;;5011137;28;20128;-78
2022/10/19 07:59:03;;;;;;;13.75;2.20;;;11.00;99.90;;;;;;5010362;28;20450;-78
2022/10/19 08:01:36;;;;;;;10.40;2.03;;;11.10;99.90;;;;;;5010362;28;20131;-79
2022/10/19 08:04:02;;;;;;;10.93;2.08;;;11.10;99.90;;;;;;5008543;28;20038;-78
2022/10/19 08:06:28;;;;;;;10.98;2.00;;;11.20;99.90;;;;;;4996213;28;20064;-78
2022/10/19 08:08:54;;;;;;;14.18;2.17;;;11.20;99.90;;;;;;5011294;28;20044;-78
2022/10/19 08:11:29;;;;;;;14.68;2.08;;;11.30;99.90;;;;;;5010522;28;20064;-77
2022/10/19 08:13:58;;;;;;;15.70;2.33;;;11.30;99.90;;;;;;5039450;28;20054;-78
2022/10/19 08:16:31;;;;;;;10.70;1.88;;;11.30;99.90;;;;;;5036808;28;20054;-79
2022/10/19 08:19:00;;;;;;;9.15;1.85;;;11.40;99.90;;;;;;5006109;28;20041;-78
2022/10/19 08:21:27;;;;;;;11.05;1.88;;;11.40;99.90;;;;;;5011285;28;20046;-79
2022/10/19 08:23:53;;;;;;;12.38;1.80;;;11.50;99.90;;;;;;5010584;28;20050;-78
2022/10/19 08:26:19;;;;;;;13.10;1.95;;;11.50;99.90;;;;;;5010521;28;20052;-78
2022/10/19 08:28:45;;;;;;;10.60;1.90;;;11.60;99.90;;;;;;5009798;28;20049;-78
2022/10/19 08:31:16;;;;;;;11.60;1.92;;;11.70;99.90;;;;;;5009933;28;20064;-76
2022/10/19 08:33:43;;;;;;;9.32;2.00;;;11.80;99.90;;;;;;5010542;28;20062;-78
2022/10/19 08:36:11;;;;;;;10.13;1.70;;;11.80;99.90;;;;;;4993680;28;20137;-78
2022/10/19 08:38:37;;;;;;;11.05;2.13;;;11.90;99.90;;;;;;5007068;28;20053;-80
2022/10/19 08:41:21;;;;;;;12.15;2.00;;;12.00;99.90;;;;;;5010384;28;20543;-79
2022/10/19 08:44:06;;;;;;;11.20;1.95;;;12.00;99.90;;;;;;5010309;28;20045;-78
2022/10/19 08:46:58;;;;;;;10.57;1.80;;;12.10;99.90;;;;;;5007787;28;20046;-78
2022/10/19 08:49:26;;;;;;;9.52;2.17;;;12.20;99.90;;;;;;5027697;28;20244;-77
2022/10/19 08:52:03;;;;;;;11.43;2.05;;;12.20;99.90;;;;;;5011209;28;20042;-78
2022/10/19 08:54:51;;;;;;;12.82;2.20;;;12.20;99.90;;;;;;5039684;28;20053;-79
2022/10/19 08:57:46;;;;;;;11.88;1.98;;;12.30;99.90;;;;;;5011367;28;20049;-78
2022/10/19 09:00:44;;;;;;;13.05;1.90;;;12.30;99.90;;;;;;4993259;28;20111;-79
2022/10/19 09:03:24;;;;;;;12.35;1.90;;;12.40;99.90;;;;;;5006640;28;20112;-78
2022/10/19 09:06:07;;;;;;;11.85;2.10;;;12.40;99.90;;;;;;5011206;28;20054;-78
2022/10/19 09:08:36;;;;;;;8.85;1.67;;;12.50;99.90;;;;;;5042594;28;20049;-78
2022/10/19 09:11:02;;;;;;;10.88;1.77;;;12.50;99.90;;;;;;5010025;28;20073;-78
2022/10/19 09:13:45;;;;;;;8.63;1.80;;;12.50;99.90;;;;;;5007857;28;20069;-77
2022/10/19 09:16:13;;;;;;;9.45;1.83;;;12.60;99.90;;;;;;5024084;28;20049;-77
2022/10/19 09:18:39;;;;;;;12.43;2.03;;;12.60;99.90;;;;;;5009690;28;20054;-79
2022/10/19 09:21:22;;;;;;;11.00;2.13;;;12.60;99.90;;;;;;4993313;28;20120;-78
2022/10/19 09:24:02;;;;;;;10.32;1.77;;;12.70;99.90;;;;;;5007622;28;20489;-78
2022/10/19 09:26:33;;;;;;;9.95;1.90;;;12.70;99.90;;;;;;5011442;28;20140;-80
2022/10/19 09:29:08;;;;;;;8.40;1.58;;;12.70;99.90;;;;;;4992944;28;20089;-78
2022/10/19 09:31:39;;;;;;;9.52;1.92;;;12.80;99.90;;;;;;4993573;28;20056;-79
2022/10/19 09:34:21;;;;;;;10.73;1.70;;;12.80;99.90;;;;;;4993296;28;20041;-78
2022/10/19 09:36:57;;;;;;;;;;;12.90;99.90;;;;;;5009008;28;20117;-78
2022/10/19 09:39:25;;;;;;;9.68;1.70;;;12.90;99.90;;;;;;5008417;28;19921;-83
2022/10/19 09:41:58;;;;;;;10.02;1.75;;;12.90;99.90;;;;;;5009159;28;20045;-81
2022/10/19 09:44:26;;;;;;;10.50;1.90;;;13.00;99.90;;;;;;5007698;28;20068;-79
2022/10/19 09:47:15;;;;;;;6.13;1.25;;;13.00;99.90;;;;;;5008835;28;20065;-80
2022/10/19 09:49:43;;;;;;;8.35;1.65;;;13.00;99.90;;;;;;5008911;28;20100;-76
2022/10/19 09:52:32;;;;;;;8.43;1.70;;;13.00;99.90;;;;;;5007069;28;20478;-78
2022/10/19 09:55:05;;;;;;;12.77;1.90;;;13.00;99.90;;;;;;5010609;28;20037;-79
2022/10/19 09:57:30;;;;;;;12.73;2.03;;;13.00;99.90;;;;;;5010469;28;20058;-77
2022/10/19 09:59:56;;;;;;;8.80;1.73;;;13.00;99.90;;;;;;5010610;28;20049;-77
2022/10/19 10:02:32;;;;;;;9.10;1.85;;;13.10;99.90;;;;;;5011763;28;20045;-79
2022/10/19 10:05:09;;;;;;;10.57;2.10;;;13.10;99.90;;;;;;5009622;28;20428;-77
2022/10/19 10:07:37;;;;;;;9.05;1.98;;;13.00;99.90;;;;;;5010281;28;20046;-78
2022/10/19 10:10:18;;;;;;;8.80;1.98;;;13.10;99.90;;;;;;4993571;28;20490;-77
2022/10/19 10:12:45;;;;;;;10.85;2.28;;;13.10;99.90;;;;;;4992138;28;20045;-79
2022/10/19 10:15:20;;;;;;;9.48;1.80;;;13.00;99.90;;;;;;4992053;28;20091;-78
2022/10/19 10:17:47;;;;;;;10.77;2.30;;;13.00;99.90;;;;;;5006934;28;20053;-78
2022/10/19 10:20:26;;;;;;;9.48;2.05;;;13.10;99.90;;;;;;5014057;28;20056;-79
2022/10/19 10:23:01;;;;;;;12.18;1.63;;;13.10;99.90;;;;;;5012873;28;20139;-78
2022/10/19 10:25:33;;;;;;;9.10;1.83;;;13.10;99.90;;;;;;5012322;28;20458;-77
2022/10/19 10:28:22;;;;;;;8.23;1.90;;;13.00;99.90;;;;;;5009243;28;20037;-77
2022/10/19 10:30:53;;;;;;;7.15;1.65;;;13.10;99.90;;;;;;5012314;28;20107;-76
2022/10/19 10:33:25;;;;;;;7.93;1.70;;;13.20;99.90;;;;;;5010375;28;20049;-76
2022/10/19 10:35:54;;;;;;;10.73;1.60;;;13.10;99.90;;;;;;5013979;28;20104;-77
2022/10/19 10:38:39;;;;;;;8.40;1.50;;;13.20;99.90;;;;;;5011165;28;20091;-79
2022/10/19 10:41:10;;;;;;;8.90;1.90;;;13.20;99.90;;;;;;5009708;28;20057;-78
2022/10/19 10:43:48;;;;;;;9.25;1.80;;;13.30;99.90;;;;;;5012694;28;20085;-77
2022/10/19 10:46:19;;;;;;;9.50;1.70;;;13.20;99.90;;;;;;5009504;28;20050;-78
2022/10/19 10:48:56;;;;;;;9.52;1.95;;;13.20;99.90;;;;;;5011936;28;20084;-78
2022/10/19 10:51:46;;;;;;;6.60;1.50;;;13.20;99.90;;;;;;5012189;28;20045;-77
2022/10/19 10:54:24;;;;;;;9.07;2.00;;;13.20;99.90;;;;;;5008105;28;20050;-78
2022/10/19 10:57:12;;;;;;;10.18;1.77;;;13.20;99.90;;;;;;5011495;28;20049;-77
2022/10/19 10:59:56;;;;;;;7.40;1.67;;;13.30;99.90;;;;;;5041809;28;20082;-76
2022/10/19 11:02:40;;;;;;;8.98;1.70;;;13.30;99.90;;;;;;5026351;28;20046;-79
2022/10/19 11:05:28;;;;;;;6.90;1.40;;;13.40;99.90;;;;;;5007971;28;20112;-79
2022/10/19 11:08:02;;;;;;;8.45;1.77;;;13.60;99.90;;;;;;5010762;28;20050;-78
2022/10/19 11:10:41;;;;;;;7.53;1.50;;;13.60;99.90;;;;;;5011062;28;20057;-80
2022/10/19 11:13:39;;;;;;;9.85;1.73;;;13.60;99.90;;;;;;5011819;28;20056;-78
2022/10/19 11:16:24;;;;;;;10.15;1.67;;;13.60;99.90;;;;;;5010776;28;20044;-77
2022/10/19 11:18:59;;;;;;;6.43;1.52;;;13.60;99.90;;;;;;5007129;28;20062;-79
2022/10/19 11:21:49;;;;;;;10.70;1.35;;;13.70;99.90;;;;;;5011083;28;20427;-79
2022/10/19 11:24:45;;;;;;;7.03;1.60;;;13.70;99.90;;;;;;5010140;28;20038;-80
2022/10/19 11:27:40;;;;;;;9.43;1.73;;;13.80;99.90;;;;;;5008746;28;20041;-74
2022/10/19 11:30:14;;;;;;;8.07;1.70;;;13.90;99.90;;;;;;5005003;28;20405;-77
2022/10/19 11:33:03;;;;;;;8.35;1.77;;;13.70;99.90;;;;;;5038823;28;20158;-80
2022/10/19 11:35:51;;;;;;;7.28;1.60;;;13.70;99.90;;;;;;5012139;28;20095;-72
2022/10/19 11:38:54;;;;;;;9.38;1.70;;;13.70;99.90;;;;;;5012211;28;20042;-78
2022/10/19 11:41:25;;;;;;;8.38;1.80;;;13.70;99.90;;;;;;5007633;28;20041;-78
2022/10/19 11:44:18;;;;;;;8.18;1.45;;;13.80;99.90;;;;;;5010733;28;20056;-79
2022/10/19 11:47:18;;;;;;;9.50;1.70;;;14.00;99.90;;;;;;5008441;28;20389;-78
2022/10/19 11:50:02;;;;;;;11.63;2.00;;;14.00;99.90;;;;;;5009497;28;20121;-81
2022/10/19 11:52:45;;;;;;;7.85;1.48;;;14.10;99.90;;;;;;5011484;28;20442;-77
2022/10/19 11:55:19;;;;;;;8.38;1.70;;;14.10;99.90;;;;;;5042711;28;20041;-78
2022/10/19 11:57:57;;;;;;;8.18;1.50;;;14.10;99.90;;;;;;5034710;28;20051;-77
2022/10/19 12:00:24;;;;;;;7.80;1.63;;;14.00;99.90;;;;;;5009352;28;20048;-79
2022/10/19 12:03:28;;;;;;;7.88;1.55;;;14.00;99.90;;;;;;5010918;28;20046;-80
2022/10/19 12:06:08;;;;;;;9.82;1.70;;;14.00;99.90;;;;;;5025922;28;20050;-77
2022/10/19 12:08:37;;;;;;;8.68;1.80;;;14.00;99.90;;;;;;5009190;28;20097;-77
2022/10/19 12:11:31;;;;;;;9.95;1.58;;;14.00;99.90;;;;;;5008990;28;20143;-76
2022/10/19 12:14:04;;;;;;;9.95;1.55;;;14.00;99.90;;;;;;5009095;28;20049;-77
2022/10/19 12:16:40;;;;;;;6.93;1.52;;;14.00;99.90;;;;;;5010778;28;20136;-76
2022/10/19 12:19:16;;;;;;;9.07;1.48;;;14.00;99.90;;;;;;4994670;28;20099;-77
2022/10/19 12:21:43;;;;;;;9.48;1.63;;;13.90;99.90;;;;;;5010085;28;20061;-77
2022/10/19 12:24:19;;;;;;;8.10;1.73;;;13.90;99.90;;;;;;5012718;28;20483;-77
2022/10/19 12:26:46;;;;;;;7.00;1.67;;;14.00;99.90;;;;;;5010128;28;20089;-77
2022/10/19 12:29:20;;;;;;;7.45;1.92;;;13.90;99.90;;;;;;5012088;28;20048;-77
2022/10/19 12:31:47;;;;;;;7.53;1.85;;;14.00;99.90;;;;;;5009310;28;20152;-78
2022/10/19 12:34:35;;;;;;;9.27;2.10;;;14.20;99.90;;;;;;5010181;28;20127;-80
2022/10/19 12:37:33;;;;;;;9.55;1.95;;;14.30;99.90;;;;;;5009348;28;20476;-76
2022/10/19 12:40:29;;;;;;;7.72;2.30;;;14.40;99.90;;;;;;5007907;28;20533;-77
2022/10/19 12:43:34;;;;;;;9.85;2.78;;;14.40;99.90;;;;;;5007790;28;20049;-78
2022/10/19 12:46:24;;;;;;;7.25;2.42;;;14.30;99.90;;;;;;5007914;28;20524;-78
2022/10/19 12:49:27;;;;;;;8.70;2.83;;;14.10;99.90;;;;;;5006652;28;20466;-76
2022/10/19 12:51:55;;;;;;;9.10;3.13;;;13.90;99.90;;;;;;5007961;28;20386;-77
2022/10/19 12:54:23;;;;;;;13.10;3.03;;;13.80;99.90;;;;;;5010603;28;20041;-76
2022/10/19 12:56:52;;;;;;;9.15;3.15;;;13.60;99.90;;;;;;5009773;28;20458;-79
2022/10/19 12:59:28;;;;;;;9.32;2.90;;;13.70;99.90;;;;;;5009848;28;20123;-79
2022/10/19 13:01:55;;;;;;;9.25;3.35;;;13.60;99.90;;;;;;5007890;28;20050;-78
2022/10/19 13:04:27;;;;;;;8.57;3.70;;;13.70;99.90;;;;;;5041572;28;20393;-76
2022/10/19 13:06:56;;;;;;;10.88;4.10;;;13.70;99.90;;;;;;5008883;28;20053;-77
2022/10/19 13:09:36;;;;;;;12.02;3.70;;;13.60;99.90;;;;;;5008383;28;20382;-79
2022/10/19 13:12:14;;;;;;;11.35;3.72;;;13.60;99.90;;;;;;5007781;28;20077;-78